sensor_id;sensor_type;location;lat;lon;timestamp;P1;durP1;ratioP1;P2;durP2;ratioP2
10769;SDS011;5437;50.852;4.438;2023-04-06T15:16:59;16.48;;;12.48;;
10769;SDS011;5437;50.852;4.438;2023-04-06T15:19:25;15.23;;;12.27;;
10769;SDS011;5437;50.852;4.438;2023-04-06T15:21:51;16.77;;;12.57;;
10769;SDS011;5437;50.852;4.438;2023-04-06T15:24:18;13.68;;;12.18;;
10769;SDS011;5437;50.852;4.438;2023-04-06T15:26:44;14.40;;;12.13;;
10769;SDS011;5437;50.852;4.438;2023-04-06T15:29:10;14.40;;;11.65;;
10769;SDS011;5437;50.852;4.438;2023-04-06T15:31:36;14.95;;;11.65;;
10769;SDS011;5437;50.852;4.438;2023-04-06T15:34:04;12.38;;;10.52;;
10769;SDS011;5437;50.852;4.438;2023-04-06T15:36:32;15.93;;;11.80;;
10769;SDS011;5437;50.852;4.438;2023-04-06T15:38:59;14.82;;;12.15;;
10769;SDS011;5437;50.852;4.438;2023-04-06T15:41:25;16.55;;;12.38;;
10769;SDS011;5437;50.852;4.438;2023-04-06T15:43:52;14.13;;;11.35;;
10769;SDS011;5437;50.852;4.438;2023-04-06T15:46:19;13.90;;;11.63;;
10769;SDS011;5437;50.852;4.438;2023-04-06T15:48:45;16.88;;;12.23;;
10769;SDS011;5437;50.852;4.438;2023-04-06T15:51:11;13.68;;;11.63;;
10769;SDS011;5437;50.852;4.438;2023-04-06T15:53:37;16.25;;;12.65;;
10769;SDS011;5437;50.852;4.438;2023-04-06T15:56:04;15.20;;;12.50;;
10769;SDS011;5437;50.852;4.438;2023-04-06T15:58:33;15.27;;;12.15;;
10769;SDS011;5437;50.852;4.438;2023-04-06T16:00:59;13.85;;;11.77;;
10769;SDS011;5437;50.852;4.438;2023-04-06T16:03:26;16.98;;;13.20;;
10769;SDS011;5437;50.852;4.438;2023-04-06T16:05:52;15.30;;;12.50;;
10769;SDS011;5437;50.852;4.438;2023-04-06T16:08:19;14.50;;;12.32;;
10769;SDS011;5437;50.852;4.438;2023-04-06T16:10:45;15.90;;;12.25;;
10769;SDS011;5437;50.852;4.438;2023-04-06T16:13:11;17.35;;;12.98;;
10769;SDS011;5437;50.852;4.438;2023-04-06T16:15:37;17.25;;;13.27;;
10769;SDS011;5437;50.852;4.438;2023-04-06T16:18:03;14.63;;;13.07;;
10769;SDS011;5437;50.852;4.438;2023-04-06T16:20:30;16.17;;;12.60;;
10769;SDS011;5437;50.852;4.438;2023-04-06T16:22:59;15.32;;;12.27;;
10769;SDS011;5437;50.852;4.438;2023-04-06T16:25:26;15.57;;;12.57;;
10769;SDS011;5437;50.852;4.438;2023-04-06T16:27:52;13.60;;;12.18;;
10769;SDS011;5437;50.852;4.438;2023-04-06T16:30:18;14.35;;;12.55;;
10769;SDS011;5437;50.852;4.438;2023-04-06T16:32:44;14.70;;;12.88;;
10769;SDS011;5437;50.852;4.438;2023-04-06T16:35:11;17.38;;;12.50;;
10769;SDS011;5437;50.852;4.438;2023-04-06T16:37:37;16.98;;;13.27;;
10769;SDS011;5437;50.852;4.438;2023-04-06T16:40:03;16.73;;;13.30;;
10769;SDS011;5437;50.852;4.438;2023-04-06T16:42:29;18.30;;;13.50;;
10769;SDS011;5437;50.852;4.438;2023-04-06T16:44:55;14.90;;;12.80;;
10769;SDS011;5437;50.852;4.438;2023-04-06T16:47:21;17.35;;;13.05;;
10769;SDS011;5437;50.852;4.438;2023-04-06T16:49:47;15.10;;;12.80;;
10769;SDS011;5437;50.852;4.438;2023-04-06T16:52:13;14.63;;;12.50;;
10769;SDS011;5437;50.852;4.438;2023-04-06T16:54:39;17.25;;;13.35;;
10769;SDS011;5437;50.852;4.438;2023-04-06T16:57:05;16.38;;;13.60;;
10769;SDS011;5437;50.852;4.438;2023-04-06T16:59:32;15.52;;;13.23;;
10769;SDS011;5437;50.852;4.438;2023-04-06T17:01:58;18.13;;;13.02;;
10769;SDS011;5437;50.852;4.438;2023-04-06T17:04:24;15.35;;;9.70;;
10769;SDS011;5437;50.852;4.438;2023-04-06T17:06:50;12.10;;;9.30;;
10769;SDS011;5437;50.852;4.438;2023-04-06T17:09:16;14.65;;;9.25;;
10769;SDS011;5437;50.852;4.438;2023-04-06T17:11:42;14.00;;;8.40;;
10769;SDS011;5437;50.852;4.438;2023-04-06T17:14:08;10.27;;;8.02;;
10769;SDS011;5437;50.852;4.438;2023-04-06T17:16:34;12.50;;;8.18;;
10769;SDS011;5437;50.852;4.438;2023-04-06T17:19:00;15.70;;;8.38;;
10769;SDS011;5437;50.852;4.438;2023-04-06T17:21:27;11.40;;;6.10;;
10769;SDS011;5437;50.852;4.438;2023-04-06T17:23:53;10.73;;;6.68;;
10769;SDS011;5437;50.852;4.438;2023-04-06T17:26:19;10.40;;;6.22;;
10769;SDS011;5437;50.852;4.438;2023-04-06T17:28:45;12.75;;;5.95;;
10769;SDS011;5437;50.852;4.438;2023-04-06T17:31:11;15.55;;;6.10;;
10769;SDS011;5437;50.852;4.438;2023-04-06T17:33:38;13.65;;;6.45;;
10769;SDS011;5437;50.852;4.438;2023-04-06T17:36:05;12.15;;;5.32;;
10769;SDS011;5437;50.852;4.438;2023-04-06T17:38:32;14.98;;;7.00;;
10769;SDS011;5437;50.852;4.438;2023-04-06T17:40:58;12.27;;;5.57;;
10769;SDS011;5437;50.852;4.438;2023-04-06T17:43:25;9.88;;;5.05;;
10769;SDS011;5437;50.852;4.438;2023-04-06T17:45:51;13.15;;;5.57;;
10769;SDS011;5437;50.852;4.438;2023-04-06T17:48:17;10.77;;;5.53;;
10769;SDS011;5437;50.852;4.438;2023-04-06T17:50:44;14.20;;;5.20;;
10769;SDS011;5437;50.852;4.438;2023-04-06T17:53:10;16.08;;;5.03;;
10769;SDS011;5437;50.852;4.438;2023-04-06T17:55:36;16.30;;;5.97;;
10769;SDS011;5437;50.852;4.438;2023-04-06T17:58:03;11.73;;;5.18;;
10769;SDS011;5437;50.852;4.438;2023-04-06T18:00:29;11.10;;;5.68;;
10769;SDS011;5437;50.852;4.438;2023-04-06T18:02:55;9.80;;;5.15;;
10769;SDS011;5437;50.852;4.438;2023-04-06T18:05:23;15.80;;;5.60;;
10769;SDS011;5437;50.852;4.438;2023-04-06T18:07:50;14.15;;;5.47;;
10769;SDS011;5437;50.852;4.438;2023-04-06T18:10:20;14.32;;;5.55;;
10769;SDS011;5437;50.852;4.438;2023-04-06T18:12:46;14.93;;;5.78;;
10769;SDS011;5437;50.852;4.438;2023-04-06T18:15:12;13.50;;;5.38;;
10769;SDS011;5437;50.852;4.438;2023-04-06T18:17:39;13.88;;;5.28;;
10769;SDS011;5437;50.852;4.438;2023-04-06T18:20:05;13.60;;;5.60;;
10769;SDS011;5437;50.852;4.438;2023-04-06T18:22:32;13.98;;;5.75;;
10769;SDS011;5437;50.852;4.438;2023-04-06T18:24:58;16.30;;;6.85;;
10769;SDS011;5437;50.852;4.438;2023-04-06T18:27:25;15.73;;;6.75;;
10769;SDS011;5437;50.852;4.438;2023-04-06T18:29:52;17.90;;;6.32;;
10769;SDS011;5437;50.852;4.438;2023-04-06T18:32:18;14.82;;;6.38;;
10769;SDS011;5437;50.852;4.438;2023-04-06T18:34:44;13.68;;;6.50;;
10769;SDS011;5437;50.852;4.438;2023-04-06T18:37:10;13.85;;;6.57;;
10769;SDS011;5437;50.852;4.438;2023-04-06T18:39:37;11.63;;;6.18;;
10769;SDS011;5437;50.852;4.438;2023-04-06T18:42:03;15.38;;;6.30;;
10769;SDS011;5437;50.852;4.438;2023-04-06T18:44:29;13.60;;;6.68;;
10769;SDS011;5437;50.852;4.438;2023-04-06T18:46:55;13.75;;;6.15;;
10769;SDS011;5437;50.852;4.438;2023-04-06T18:49:21;12.18;;;5.50;;
10769;SDS011;5437;50.852;4.438;2023-04-06T18:51:48;16.30;;;6.47;;
10769;SDS011;5437;50.852;4.438;2023-04-06T18:54:14;11.27;;;5.57;;
10769;SDS011;5437;50.852;4.438;2023-04-06T18:56:40;14.82;;;6.05;;
10769;SDS011;5437;50.852;4.438;2023-04-06T18:59:06;12.25;;;6.05;;
10769;SDS011;5437;50.852;4.438;2023-04-06T19:01:33;14.35;;;5.95;;
10769;SDS011;5437;50.852;4.438;2023-04-06T19:03:59;10.25;;;5.70;;
10769;SDS011;5437;50.852;4.438;2023-04-06T19:06:26;11.93;;;5.57;;
10769;SDS011;5437;50.852;4.438;2023-04-06T19:08:52;8.35;;;4.78;;
10769;SDS011;5437;50.852;4.438;2023-04-06T19:11:18;11.40;;;4.70;;
10769;SDS011;5437;50.852;4.438;2023-04-06T19:13:47;7.40;;;4.05;;
10769;SDS011;5437;50.852;4.438;2023-04-06T19:16:16;7.88;;;4.18;;
10769;SDS011;5437;50.852;4.438;2023-04-06T19:18:42;5.80;;;4.28;;
10769;SDS011;5437;50.852;4.438;2023-04-06T19:21:15;8.85;;;4.72;;
10769;SDS011;5437;50.852;4.438;2023-04-06T19:23:42;6.65;;;4.22;;
10769;SDS011;5437;50.852;4.438;2023-04-06T19:26:09;7.05;;;4.70;;
10769;SDS011;5437;50.852;4.438;2023-04-06T19:28:38;8.07;;;4.70;;
10769;SDS011;5437;50.852;4.438;2023-04-06T19:31:05;5.75;;;4.45;;
10769;SDS011;5437;50.852;4.438;2023-04-06T19:33:31;9.38;;;4.88;;
10769;SDS011;5437;50.852;4.438;2023-04-06T19:35:57;5.35;;;4.32;;
10769;SDS011;5437;50.852;4.438;2023-04-06T19:38:23;6.47;;;4.90;;
10769;SDS011;5437;50.852;4.438;2023-04-06T19:40:49;5.45;;;4.57;;
10769;SDS011;5437;50.852;4.438;2023-04-06T19:43:15;5.97;;;4.45;;
10769;SDS011;5437;50.852;4.438;2023-04-06T19:45:42;7.05;;;4.68;;
10769;SDS011;5437;50.852;4.438;2023-04-06T19:48:08;7.43;;;4.78;;
10769;SDS011;5437;50.852;4.438;2023-04-06T19:50:35;7.05;;;4.80;;
10769;SDS011;5437;50.852;4.438;2023-04-06T19:53:01;7.28;;;5.00;;
10769;SDS011;5437;50.852;4.438;2023-04-06T19:55:27;9.30;;;5.05;;
10769;SDS011;5437;50.852;4.438;2023-04-06T19:57:55;8.82;;;5.10;;
10769;SDS011;5437;50.852;4.438;2023-04-06T20:00:21;6.00;;;4.95;;
10769;SDS011;5437;50.852;4.438;2023-04-06T20:02:47;6.50;;;5.30;;
10769;SDS011;5437;50.852;4.438;2023-04-06T20:05:13;7.80;;;5.28;;
10769;SDS011;5437;50.852;4.438;2023-04-06T20:07:39;8.30;;;5.40;;
10769;SDS011;5437;50.852;4.438;2023-04-06T20:10:05;7.18;;;5.70;;
10769;SDS011;5437;50.852;4.438;2023-04-06T20:12:32;7.40;;;5.60;;
10769;SDS011;5437;50.852;4.438;2023-04-06T20:14:58;7.60;;;5.95;;
10769;SDS011;5437;50.852;4.438;2023-04-06T20:17:24;7.50;;;5.68;;
10769;SDS011;5437;50.852;4.438;2023-04-06T20:19:50;9.32;;;6.25;;
10769;SDS011;5437;50.852;4.438;2023-04-06T20:22:18;8.02;;;5.88;;
10769;SDS011;5437;50.852;4.438;2023-04-06T20:24:44;8.20;;;5.30;;
10769;SDS011;5437;50.852;4.438;2023-04-06T20:27:10;6.68;;;4.95;;
10769;SDS011;5437;50.852;4.438;2023-04-06T20:29:36;8.48;;;5.57;;
10769;SDS011;5437;50.852;4.438;2023-04-06T20:32:02;6.55;;;5.60;;
10769;SDS011;5437;50.852;4.438;2023-04-06T20:34:28;8.57;;;5.93;;
10769;SDS011;5437;50.852;4.438;2023-04-06T20:36:56;7.20;;;5.00;;
10769;SDS011;5437;50.852;4.438;2023-04-06T20:39:22;6.72;;;4.70;;
10769;SDS011;5437;50.852;4.438;2023-04-06T20:41:49;5.45;;;4.85;;
10769;SDS011;5437;50.852;4.438;2023-04-06T20:44:16;8.60;;;4.22;;
10769;SDS011;5437;50.852;4.438;2023-04-06T20:46:44;6.70;;;4.68;;
10769;SDS011;5437;50.852;4.438;2023-04-06T20:49:12;6.85;;;4.72;;
10769;SDS011;5437;50.852;4.438;2023-04-06T20:51:38;5.65;;;4.68;;
10769;SDS011;5437;50.852;4.438;2023-04-06T20:54:06;7.60;;;4.60;;
10769;SDS011;5437;50.852;4.438;2023-04-06T20:56:32;7.05;;;4.60;;
10769;SDS011;5437;50.852;4.438;2023-04-06T20:58:58;8.43;;;5.40;;
10769;SDS011;5437;50.852;4.438;2023-04-06T21:01:28;7.65;;;5.25;;
10769;SDS011;5437;50.852;4.438;2023-04-06T21:03:54;6.20;;;4.90;;
10769;SDS011;5437;50.852;4.438;2023-04-06T21:06:20;6.15;;;4.32;;
10769;SDS011;5437;50.852;4.438;2023-04-06T21:08:46;8.27;;;4.43;;
10769;SDS011;5437;50.852;4.438;2023-04-06T21:11:12;5.68;;;4.03;;
10769;SDS011;5437;50.852;4.438;2023-04-06T21:13:38;4.18;;;3.78;;
10769;SDS011;5437;50.852;4.438;2023-04-06T21:16:05;4.28;;;3.20;;
10769;SDS011;5437;50.852;4.438;2023-04-06T21:18:31;4.60;;;3.30;;
10769;SDS011;5437;50.852;4.438;2023-04-06T21:20:57;4.75;;;2.90;;
10769;SDS011;5437;50.852;4.438;2023-04-06T21:23:23;3.78;;;2.85;;
10769;SDS011;5437;50.852;4.438;2023-04-06T21:25:49;2.67;;;2.38;;
10769;SDS011;5437;50.852;4.438;2023-04-06T21:28:16;3.15;;;2.50;;
10769;SDS011;5437;50.852;4.438;2023-04-06T21:30:42;2.92;;;2.10;;
10769;SDS011;5437;50.852;4.438;2023-04-06T21:33:08;2.47;;;2.10;;
